createdAt,value
2022-09-18T00:01:31.936Z,61.75
2022-09-18T00:04:05.181Z,61.88
2022-09-18T00:06:37.003Z,61.91
2022-09-18T00:09:08.238Z,61.73
2022-09-18T00:11:38.246Z,61.49
2022-09-18T00:14:07.477Z,61.47
2022-09-18T00:16:34.640Z,61.34
2022-09-18T00:19:01.895Z,61.47
2022-09-18T00:21:29.711Z,61.29
2022-09-18T00:23:59.581Z,61.58
2022-09-18T00:26:26.896Z,61.35
2022-09-18T00:28:54.989Z,61.41
2022-09-18T00:31:30.926Z,61.33
2022-09-18T00:33:59.422Z,61.22
2022-09-18T00:36:26.796Z,61.44
2022-09-18T00:38:56.641Z,61.49
2022-09-18T00:41:29.951Z,61.64
2022-09-18T00:44:28.493Z,61.40
2022-09-18T00:47:03.465Z,61.82
2022-09-18T00:49:30.548Z,61.74
2022-09-18T00:51:59.148Z,61.63
2022-09-18T00:54:31.646Z,61.69
2022-09-18T00:57:02.337Z,61.67
2022-09-18T00:59:32.195Z,61.54
2022-09-18T01:02:00.288Z,61.87
2022-09-18T01:04:29.344Z,62.26
2022-09-18T01:07:01.573Z,61.69
2022-09-18T01:09:54.469Z,61.91
2022-09-18T01:12:39.588Z,61.89
2022-09-18T01:15:09.317Z,61.71
2022-09-18T01:17:35.902Z,62.21
2022-09-18T01:20:20.948Z,61.81
2022-09-18T01:22:54.573Z,61.68
2022-09-18T01:25:42.969Z,61.59
2022-09-18T01:28:38.459Z,62.00
2022-09-18T01:31:13.443Z,62.08
2022-09-18T01:33:52.566Z,62.11
2022-09-18T01:36:24.158Z,61.82
2022-09-18T01:39:01.912Z,62.11
2022-09-18T01:41:30.219Z,62.23
2022-09-18T01:44:03.693Z,62.62
2022-09-18T01:46:30.758Z,62.47
2022-09-18T01:49:04.439Z,62.53
2022-09-18T01:51:47.246Z,62.12
2022-09-18T01:54:22.869Z,61.99
2022-09-18T01:56:57.341Z,61.80
2022-09-18T01:59:36.725Z,61.55
2022-09-18T02:02:14.860Z,61.69
2022-09-18T02:04:44.527Z,61.87
2022-09-18T02:07:35.736Z,61.78
2022-09-18T02:10:05.771Z,61.31
2022-09-18T02:12:36.465Z,61.53
2022-09-18T02:15:10.447Z,61.55
2022-09-18T02:17:56.392Z,61.63
2022-09-18T02:20:30.472Z,61.59
2022-09-18T02:23:03.570Z,61.82
2022-09-18T02:25:36.983Z,61.56
2022-09-18T02:28:06.873Z,61.83
2022-09-18T02:30:34.524Z,61.99
2022-09-18T02:33:01.331Z,61.60
2022-09-18T02:35:42.873Z,61.70
2022-09-18T02:38:29.515Z,61.89
2022-09-18T02:41:07.911Z,61.65
2022-09-18T02:44:01.957Z,61.59
2022-09-18T02:46:55.268Z,61.95
2022-09-18T02:49:54.523Z,61.49
2022-09-18T02:52:29.779Z,61.59
2022-09-18T02:55:08.337Z,61.60
2022-09-18T02:57:44.041Z,61.57
2022-09-18T03:00:16.927Z,61.81
2022-09-18T03:02:45.961Z,61.54
2022-09-18T03:05:14.628Z,61.63
2022-09-18T03:08:01.003Z,61.80
2022-09-18T03:10:29.210Z,61.41
2022-09-18T03:12:56.988Z,61.61
2022-09-18T03:15:23.733Z,61.67
2022-09-18T03:17:51.272Z,61.39
2022-09-18T03:20:18.746Z,61.11
2022-09-18T03:22:46.288Z,60.83
2022-09-18T03:25:14.489Z,60.40
2022-09-18T03:27:43.840Z,60.26
2022-09-18T03:30:15.324Z,60.50
2022-09-18T03:32:42.592Z,60.33
2022-09-18T03:35:10.707Z,60.13
2022-09-18T03:37:42.342Z,60.35
2022-09-18T03:40:11.949Z,60.02
2022-09-18T03:42:46.671Z,60.32
2022-09-18T03:45:18.782Z,60.27
2022-09-18T03:47:46.950Z,60.38
2022-09-18T03:50:16.352Z,60.42
2022-09-18T03:52:50.434Z,60.28
2022-09-18T03:55:38.803Z,60.24
2022-09-18T03:58:22.458Z,60.33
2022-09-18T04:01:15.966Z,60.42
2022-09-18T04:04:04.321Z,60.29
2022-09-18T04:06:55.443Z,60.20
2022-09-18T04:09:40.791Z,59.73
2022-09-18T04:12:07.669Z,59.91
2022-09-18T04:14:34.723Z,59.98
2022-09-18T04:17:01.497Z,60.29
2022-09-18T04:19:29.816Z,60.19
2022-09-18T04:21:57.630Z,60.10
2022-09-18T04:24:26.095Z,59.99
2022-09-18T04:26:52.897Z,60.44
2022-09-18T04:29:22.844Z,60.26
2022-09-18T04:31:50.879Z,60.42
2022-09-18T04:34:25.586Z,60.53
2022-09-18T04:36:53.441Z,60.77
2022-09-18T04:39:20.375Z,60.33
2022-09-18T04:41:47.685Z,60.71
2022-09-18T04:44:14.524Z,60.59
2022-09-18T04:46:43.409Z,60.82
2022-09-18T04:49:10.773Z,60.79
2022-09-18T04:51:38.332Z,60.69
2022-09-18T04:54:05.860Z,60.57
2022-09-18T04:56:36.298Z,61.30
2022-09-18T04:59:03.609Z,61.40
2022-09-18T05:01:30.546Z,61.27
2022-09-18T05:03:59.566Z,61.57
2022-09-18T05:06:37.727Z,61.60
2022-09-18T05:09:04.491Z,61.72
2022-09-18T05:11:31.201Z,62.01
2022-09-18T05:13:58.147Z,61.65
2022-09-18T05:16:27.664Z,61.47
2022-09-18T05:19:13.003Z,61.84
2022-09-18T05:21:39.962Z,62.14
2022-09-18T05:24:14.017Z,62.12
2022-09-18T05:26:41.589Z,62.48
2022-09-18T05:29:08.468Z,62.51
2022-09-18T05:31:35.267Z,62.30
2022-09-18T05:34:02.248Z,62.54
2022-09-18T05:36:28.951Z,62.71
2022-09-18T05:38:55.713Z,62.96
2022-09-18T05:41:23.814Z,62.29
2022-09-18T05:43:51.012Z,62.17
2022-09-18T05:46:17.851Z,62.07
2022-09-18T05:48:50.498Z,61.73
2022-09-18T05:51:18.746Z,61.73
2022-09-18T05:53:48.513Z,61.70
2022-09-18T05:56:30.523Z,60.97
2022-09-18T05:58:57.219Z,60.24
2022-09-18T06:01:24.156Z,59.69
2022-09-18T06:04:09.264Z,59.92
2022-09-18T06:06:51.295Z,59.17
2022-09-18T06:09:18.505Z,58.72
2022-09-18T06:11:45.191Z,58.41
2022-09-18T06:14:11.876Z,58.16
2022-09-18T06:16:42.100Z,58.02
2022-09-18T06:19:10.264Z,57.73
2022-09-18T06:21:37.298Z,57.74
2022-09-18T06:24:06.474Z,57.59
2022-09-18T06:26:39.444Z,57.45
2022-09-18T06:29:06.611Z,57.24
2022-09-18T06:31:44.415Z,56.70
2022-09-18T06:34:15.219Z,56.54
2022-09-18T06:36:44.558Z,56.08
2022-09-18T06:39:24.725Z,54.30
2022-09-18T06:41:56.112Z,52.33
2022-09-18T06:44:47.099Z,48.58
2022-09-18T06:47:15.336Z,45.31
2022-09-18T06:49:45.224Z,42.11
2022-09-18T06:52:11.890Z,39.61
2022-09-18T06:54:39.692Z,39.04
2022-09-18T06:57:10.263Z,37.42
2022-09-18T06:59:38.280Z,36.16
2022-09-18T07:02:17.271Z,34.89
2022-09-18T07:05:14.556Z,33.67
2022-09-18T07:07:45.604Z,33.66
2022-09-18T07:10:12.386Z,33.21
2022-09-18T07:12:48.384Z,32.74
2022-09-18T07:15:19.146Z,32.58
2022-09-18T07:17:46.145Z,31.38
2022-09-18T07:20:15.777Z,31.38
2022-09-18T07:22:47.394Z,30.49
2022-09-18T07:25:14.957Z,29.67
2022-09-18T07:27:43.440Z,29.09
2022-09-18T07:30:11.907Z,28.23
2022-09-18T07:32:38.605Z,27.40
2022-09-18T07:35:11.970Z,27.25
2022-09-18T07:37:39.259Z,26.89
2022-09-18T07:40:19.694Z,28.42
2022-09-18T07:43:13.470Z,30.38
2022-09-18T07:45:49.010Z,32.00
2022-09-18T07:48:16.306Z,32.77
2022-09-18T07:50:47.072Z,31.87
2022-09-18T07:53:15.142Z,31.32
2022-09-18T07:55:47.082Z,31.01
2022-09-18T07:58:14.648Z,29.98
2022-09-18T08:01:02.381Z,28.19
2022-09-18T08:03:30.703Z,27.69
2022-09-18T08:06:08.621Z,26.19
2022-09-18T08:08:38.853Z,25.58
2022-09-18T08:11:34.498Z,25.30
2022-09-18T08:14:23.404Z,24.35
2022-09-18T08:17:08.356Z,24.71
2022-09-18T08:19:58.452Z,25.02
2022-09-18T08:22:45.929Z,25.50
2022-09-18T08:25:13.896Z,25.45
2022-09-18T08:27:44.449Z,24.46
2022-09-18T08:30:13.752Z,22.82
2022-09-18T08:32:41.793Z,22.26
2022-09-18T08:35:10.981Z,21.56
2022-09-18T08:37:38.331Z,21.29
2022-09-18T08:40:42.870Z,21.62
2022-09-18T08:43:29.649Z,23.63
2022-09-18T08:46:08.648Z,25.94
2022-09-18T08:48:45.484Z,26.90
2022-09-18T08:51:21.435Z,29.15
2022-09-18T08:53:54.488Z,30.51
2022-09-18T08:56:25.972Z,31.48
2022-09-18T08:59:55.055Z,32.64
2022-09-18T09:02:31.013Z,33.70
2022-09-18T09:05:03.720Z,34.24
2022-09-18T09:07:31.737Z,35.34
2022-09-18T09:12:44.567Z,36.01
2022-09-18T09:15:53.417Z,36.03
2022-09-18T09:18:42.554Z,36.09
2022-09-18T09:21:21.726Z,36.02
2022-09-18T09:24:21.049Z,34.73
2022-09-18T09:27:17.716Z,33.19
2022-09-18T09:30:20.582Z,28.79
2022-09-18T09:33:19.496Z,27.51
2022-09-18T09:36:11.785Z,26.75
2022-09-18T09:39:06.214Z,25.57
2022-09-18T09:41:45.037Z,23.69
2022-09-18T09:44:14.686Z,25.00
2022-09-18T09:47:19.236Z,24.69
2022-09-18T09:50:15.041Z,23.95
2022-09-18T09:52:46.551Z,23.41
2022-09-18T09:55:26.487Z,24.51
2022-09-18T09:58:04.504Z,23.27
2022-09-18T10:00:44.375Z,24.20
2022-09-18T10:03:42.698Z,24.42
2022-09-18T10:06:17.649Z,24.43
2022-09-18T10:08:59.555Z,23.54
2022-09-18T10:11:26.983Z,23.93
2022-09-18T10:14:12.792Z,24.20
2022-09-18T10:16:47.334Z,24.81
2022-09-18T10:19:17.838Z,24.03
2022-09-18T10:21:45.671Z,25.61
2022-09-18T10:24:42.679Z,27.57
2022-09-18T10:27:15.014Z,27.40
2022-09-18T10:29:43.227Z,27.54
2022-09-18T10:32:32.436Z,25.94
2022-09-18T10:35:00.946Z,24.72
2022-09-18T10:37:30.570Z,23.80
2022-09-18T10:40:02.790Z,23.02
2022-09-18T10:42:34.850Z,22.28
2022-09-18T10:45:22.758Z,23.63
2022-09-18T10:48:06.054Z,24.80
2022-09-18T10:50:34.632Z,26.37
2022-09-18T10:53:24.190Z,28.04
2022-09-18T10:55:55.825Z,28.50
2022-09-18T10:58:32.546Z,29.01
2022-09-18T11:01:07.941Z,29.07
2022-09-18T11:03:42.309Z,31.58
2022-09-18T11:06:20.456Z,32.22
2022-09-18T11:08:50.643Z,33.42
2022-09-18T11:11:30.454Z,33.70
2022-09-18T11:14:03.703Z,34.82
2022-09-18T11:16:43.666Z,35.44
2022-09-18T11:19:34.004Z,34.95
2022-09-18T11:22:27.270Z,35.93
2022-09-18T11:25:27.186Z,36.13
2022-09-18T11:28:02.601Z,36.41
2022-09-18T11:30:38.638Z,36.37
2022-09-18T11:33:24.878Z,36.47
2022-09-18T11:36:03.027Z,36.41
2022-09-18T11:38:32.603Z,36.21
2022-09-18T11:41:02.915Z,35.72
2022-09-18T11:43:39.668Z,36.00
2022-09-18T11:46:52.800Z,35.45
2022-09-18T11:49:23.922Z,35.47
2022-09-18T11:52:01.298Z,35.64
2022-09-18T11:54:43.927Z,34.58
2022-09-18T11:57:19.602Z,33.90
2022-09-18T11:59:57.421Z,33.11
2022-09-18T12:02:42.225Z,32.47
2022-09-18T12:05:29.289Z,33.04
2022-09-18T12:08:20.226Z,30.92
2022-09-18T12:11:17.528Z,30.11
2022-09-18T12:13:47.990Z,29.80
2022-09-18T12:16:24.803Z,29.28
2022-09-18T12:19:07.743Z,29.83
2022-09-18T12:21:45.184Z,30.47
2022-09-18T12:24:15.700Z,30.91
2022-09-18T12:26:56.057Z,30.62
2022-09-18T12:29:32.075Z,31.27
2022-09-18T12:32:20.624Z,31.80
2022-09-18T12:35:01.709Z,31.88
2022-09-18T12:37:53.520Z,32.40
2022-09-18T12:40:34.273Z,32.37
2022-09-18T12:43:13.229Z,31.74
2022-09-18T12:45:53.388Z,31.54
2022-09-18T12:48:31.980Z,31.92
2022-09-18T12:51:38.923Z,31.72
2022-09-18T12:54:06.710Z,32.19
2022-09-18T12:56:42.540Z,32.68
2022-09-18T12:59:22.169Z,31.21
2022-09-18T13:02:02.641Z,31.29
2022-09-18T13:04:33.421Z,31.12
2022-09-18T13:07:25.824Z,30.90
2022-09-18T13:10:01.867Z,30.49
2022-09-18T13:12:51.582Z,30.82
2022-09-18T13:15:25.664Z,30.67
2022-09-18T13:18:17.103Z,30.53
2022-09-18T13:20:46.044Z,30.76
2022-09-18T13:23:20.857Z,31.61
2022-09-18T13:25:51.600Z,31.72
2022-09-18T13:28:21.964Z,32.35
2022-09-18T13:31:14.513Z,32.19
2022-09-18T13:34:06.653Z,32.28
2022-09-18T13:36:38.674Z,32.39
2022-09-18T13:39:20.350Z,32.75
2022-09-18T13:41:51.297Z,33.30
2022-09-18T13:44:21.352Z,32.67
2022-09-18T13:46:50.382Z,33.49
2022-09-18T13:49:25.064Z,33.41
2022-09-18T13:51:56.640Z,32.93
2022-09-18T13:54:28.056Z,32.19
2022-09-18T13:57:04.957Z,32.25
2022-09-18T13:59:58.417Z,32.27
2022-09-18T14:02:29.777Z,32.06
2022-09-18T14:05:05.400Z,32.25
2022-09-18T14:07:32.060Z,32.08
2022-09-18T14:10:04.345Z,31.78
2022-09-18T14:12:35.555Z,31.70
2022-09-18T14:15:16.356Z,31.79
2022-09-18T14:18:07.814Z,32.56
2022-09-18T14:20:35.103Z,31.87
2022-09-18T14:23:45.967Z,32.32
2022-09-18T14:26:31.013Z,32.24
2022-09-18T14:29:19.677Z,32.37
2022-09-18T14:31:49.278Z,32.63
2022-09-18T14:34:34.744Z,32.13
2022-09-18T14:37:20.343Z,31.83
2022-09-18T14:39:47.417Z,32.47
2022-09-18T14:42:33.891Z,32.41
2022-09-18T14:45:12.937Z,32.22
2022-09-18T14:47:41.892Z,32.45
2022-09-18T14:50:27.295Z,32.99
2022-09-18T14:52:55.389Z,32.74
2022-09-18T14:55:33.729Z,33.44
2022-09-18T14:58:07.361Z,33.46
2022-09-18T15:00:36.506Z,34.40
2022-09-18T15:03:20.445Z,33.85
2022-09-18T15:05:51.273Z,33.32
2022-09-18T15:08:26.639Z,32.75
2022-09-18T15:10:57.845Z,32.62
2022-09-18T15:13:24.806Z,31.95
2022-09-18T15:16:01.392Z,32.58
2022-09-18T15:18:29.470Z,32.57
2022-09-18T15:20:59.275Z,32.24
2022-09-18T15:23:27.493Z,31.33
2022-09-18T15:25:57.414Z,32.65
2022-09-18T15:28:26.132Z,31.46
2022-09-18T15:30:58.057Z,31.88
2022-09-18T15:33:27.314Z,32.01
2022-09-18T15:35:55.708Z,32.83
2022-09-18T15:38:32.910Z,32.74
2022-09-18T15:41:41.303Z,33.43
2022-09-18T15:44:39.060Z,33.89
2022-09-18T15:47:29.234Z,33.96
2022-09-18T15:49:56.866Z,34.03
2022-09-18T15:52:42.104Z,33.93
2022-09-18T15:55:19.192Z,33.85
2022-09-18T15:57:55.132Z,33.38
2022-09-18T16:00:24.928Z,33.88
2022-09-18T16:02:57.975Z,33.86
2022-09-18T16:05:26.698Z,33.91
2022-09-18T16:07:59.432Z,34.45
2022-09-18T16:10:35.331Z,34.55
2022-09-18T16:13:25.866Z,34.94
2022-09-18T16:16:07.906Z,35.37
2022-09-18T16:18:49.444Z,35.65
2022-09-18T16:21:19.277Z,35.34
2022-09-18T16:23:50.631Z,35.52
2022-09-18T16:26:30.767Z,35.73
2022-09-18T16:29:02.302Z,35.45
2022-09-18T16:31:31.988Z,35.66
2022-09-18T16:34:03.723Z,35.62
2022-09-18T16:36:38.894Z,35.97
2022-09-18T16:39:08.606Z,36.09
2022-09-18T16:41:35.979Z,36.35
2022-09-18T16:44:04.293Z,36.61
2022-09-18T16:46:45.852Z,36.35
2022-09-18T16:49:18.022Z,36.83
2022-09-18T16:51:44.826Z,36.89
2022-09-18T16:54:11.559Z,36.88
2022-09-18T16:56:43.037Z,37.41
2022-09-18T16:59:10.353Z,37.61
2022-09-18T17:01:54.126Z,36.91
2022-09-18T17:04:27.009Z,37.04
2022-09-18T17:06:54.032Z,36.63
2022-09-18T17:09:23.951Z,36.80
2022-09-18T17:11:51.786Z,36.84
2022-09-18T17:14:18.589Z,36.99
2022-09-18T17:16:45.363Z,37.10
2022-09-18T17:19:13.273Z,37.42
2022-09-18T17:21:40.513Z,37.09
2022-09-18T17:24:08.105Z,37.36
2022-09-18T17:26:36.330Z,37.56
2022-09-18T17:29:04.283Z,37.66
2022-09-18T17:31:31.122Z,37.83
2022-09-18T17:33:57.981Z,38.00
2022-09-18T17:36:24.841Z,37.96
2022-09-18T17:38:51.831Z,38.13
2022-09-18T17:41:19.510Z,38.40
2022-09-18T17:43:52.221Z,38.59
2022-09-18T17:46:19.251Z,38.85
2022-09-18T17:48:46.015Z,38.89
2022-09-18T17:51:16.628Z,38.81
2022-09-18T17:53:45.225Z,39.09
2022-09-18T17:56:14.914Z,39.03
2022-09-18T17:58:43.995Z,39.23
2022-09-18T18:01:11.943Z,38.93
2022-09-18T18:03:39.289Z,39.23
2022-09-18T18:06:06.230Z,39.52
2022-09-18T18:08:33.197Z,39.64
2022-09-18T18:11:08.964Z,39.89
2022-09-18T18:13:37.279Z,39.77
2022-09-18T18:16:15.435Z,39.82
2022-09-18T18:18:43.219Z,40.33
2022-09-18T18:21:11.074Z,40.05
2022-09-18T18:23:38.434Z,40.51
2022-09-18T18:26:07.328Z,40.42
2022-09-18T18:28:35.461Z,41.07
2022-09-18T18:31:05.486Z,41.34
2022-09-18T18:33:36.169Z,41.62
2022-09-18T18:36:24.482Z,41.63
2022-09-18T18:38:53.598Z,41.87
2022-09-18T18:41:22.168Z,42.28
2022-09-18T18:43:55.337Z,42.54
2022-09-18T18:46:28.485Z,42.31
2022-09-18T18:49:02.845Z,42.35
2022-09-18T18:51:32.821Z,42.73
2022-09-18T18:54:02.724Z,42.72
2022-09-18T18:56:32.265Z,42.85
2022-09-18T18:59:01.424Z,42.69
2022-09-18T19:01:29.759Z,42.86
2022-09-18T19:03:59.908Z,43.06
2022-09-18T19:06:27.100Z,43.16
2022-09-18T19:08:59.397Z,45.38
2022-09-18T19:11:26.985Z,45.96
2022-09-18T19:13:56.727Z,45.63
2022-09-18T19:16:25.560Z,46.66
2022-09-18T19:18:59.592Z,46.55
2022-09-18T19:21:28.059Z,46.45
2022-09-18T19:23:58.898Z,46.65
2022-09-18T19:26:28.029Z,46.22
2022-09-18T19:28:57.140Z,46.02
2022-09-18T19:31:24.932Z,45.95
2022-09-18T19:33:52.505Z,45.91
2022-09-18T19:36:24.845Z,45.75
2022-09-18T19:38:52.567Z,45.56
2022-09-18T19:41:38.976Z,45.59
2022-09-18T19:44:12.665Z,45.80
2022-09-18T19:46:40.013Z,45.66
2022-09-18T19:49:15.477Z,45.77
2022-09-18T19:51:42.133Z,46.12
2022-09-18T19:54:08.818Z,46.20
2022-09-18T19:56:43.046Z,45.93
2022-09-18T19:59:10.373Z,46.17
2022-09-18T20:01:37.238Z,45.99
2022-09-18T20:04:04.435Z,45.72
2022-09-18T20:06:32.809Z,45.63
2022-09-18T20:09:00.522Z,45.54
2022-09-18T20:11:27.213Z,45.93
2022-09-18T20:13:53.902Z,45.70
2022-09-18T20:16:21.148Z,45.63
2022-09-18T20:18:48.716Z,45.94
2022-09-18T20:21:17.756Z,45.82
2022-09-18T20:23:44.923Z,45.89
2022-09-18T20:26:14.902Z,46.39
2022-09-18T20:28:42.278Z,46.15
2022-09-18T20:31:11.633Z,46.08
2022-09-18T20:33:38.424Z,46.30
2022-09-18T20:36:07.759Z,46.34
2022-09-18T20:38:36.935Z,45.82
2022-09-18T20:41:07.221Z,46.61
2022-09-18T20:43:36.305Z,46.82
2022-09-18T20:46:05.345Z,46.72
2022-09-18T20:48:39.224Z,46.62
2022-09-18T20:51:09.005Z,46.87
2022-09-18T20:53:40.958Z,46.55
2022-09-18T20:56:09.348Z,46.79
2022-09-18T20:58:39.426Z,47.06
2022-09-18T21:01:11.192Z,47.10
2022-09-18T21:03:43.329Z,47.05
2022-09-18T21:06:23.317Z,47.23
2022-09-18T21:08:53.484Z,48.03
2022-09-18T21:11:26.322Z,48.52
2022-09-18T21:13:55.765Z,48.81
2022-09-18T21:16:25.910Z,50.85
2022-09-18T21:18:55.679Z,51.43
2022-09-18T21:21:22.999Z,51.63
2022-09-18T21:24:01.255Z,52.45
2022-09-18T21:26:48.681Z,54.14
2022-09-18T21:29:20.614Z,55.67
2022-09-18T21:31:51.468Z,56.37
2022-09-18T21:34:23.750Z,56.96
2022-09-18T21:36:51.998Z,57.79
2022-09-18T21:39:18.686Z,58.43
2022-09-18T21:41:48.322Z,58.72
2022-09-18T21:44:17.796Z,58.72
2022-09-18T21:46:47.828Z,59.40
2022-09-18T21:49:16.238Z,59.24
2022-09-18T21:51:43.737Z,59.08
2022-09-18T21:54:19.108Z,59.59
2022-09-18T21:56:49.198Z,59.94
2022-09-18T21:59:15.932Z,60.79
2022-09-18T22:01:43.304Z,60.87
2022-09-18T22:04:11.045Z,60.85
2022-09-18T22:06:41.624Z,61.09
2022-09-18T22:09:14.383Z,60.83
2022-09-18T22:11:42.633Z,61.15
2022-09-18T22:14:12.823Z,61.54
2022-09-18T22:16:40.169Z,61.42
2022-09-18T22:19:10.270Z,61.93
2022-09-18T22:21:39.780Z,61.49
2022-09-18T22:24:12.126Z,61.53
2022-09-18T22:26:45.322Z,62.06
2022-09-18T22:29:21.109Z,61.71
2022-09-18T22:31:49.274Z,60.70
2022-09-18T22:34:20.488Z,60.15
2022-09-18T22:36:48.155Z,60.55
2022-09-18T22:39:16.286Z,60.11
2022-09-18T22:41:43.469Z,59.32
2022-09-18T22:44:11.049Z,58.64
2022-09-18T22:46:39.807Z,58.71
2022-09-18T22:49:08.694Z,58.63
2022-09-18T22:51:35.479Z,58.83
2022-09-18T22:54:07.430Z,58.80
2022-09-18T22:56:38.795Z,59.41
2022-09-18T22:59:05.594Z,59.66
2022-09-18T23:01:34.069Z,59.66
2022-09-18T23:04:05.210Z,60.16
2022-09-18T23:06:33.549Z,59.90
2022-09-18T23:09:00.848Z,60.46
2022-09-18T23:11:30.253Z,60.79
2022-09-18T23:14:04.362Z,61.15
2022-09-18T23:16:33.568Z,61.57
2022-09-18T23:19:03.754Z,61.99
2022-09-18T23:21:32.495Z,61.82
2022-09-18T23:24:01.458Z,61.95
2022-09-18T23:26:30.871Z,61.72
2022-09-18T23:28:58.998Z,62.18
2022-09-18T23:31:31.337Z,62.42
2022-09-18T23:34:00.371Z,61.94
2022-09-18T23:36:35.886Z,62.36
2022-09-18T23:39:24.662Z,62.28
2022-09-18T23:41:51.935Z,62.35
2022-09-18T23:44:20.919Z,62.63
2022-09-18T23:46:48.070Z,62.19
2022-09-18T23:49:15.835Z,61.96
2022-09-18T23:51:46.116Z,61.97
2022-09-18T23:54:18.578Z,62.42
2022-09-18T23:56:45.866Z,61.93
2022-09-18T23:59:14.265Z,62.10
